sensor_id;sensor_type;location;lat;lon;timestamp;pressure;altitude;pressure_sealevel;temperature;humidity
19761;BME280;10039;42.632;23.408;2022-09-09T00:01:04;95208.84;;;20.17;63.46
19761;BME280;10039;42.632;23.408;2022-09-09T00:03:46;95190.78;;;19.99;63.77
19761;BME280;10039;42.632;23.408;2022-09-09T00:06:23;95195.84;;;20.06;64.03
19761;BME280;10039;42.632;23.408;2022-09-09T00:09:13;95195.66;;;20.10;63.71
19761;BME280;10039;42.632;23.408;2022-09-09T00:11:58;95194.44;;;20.11;63.72
19761;BME280;10039;42.632;23.408;2022-09-09T00:17:06;95199.53;;;19.94;64.09
19761;BME280;10039;42.632;23.408;2022-09-09T00:20:13;95176.91;;;19.83;64.14
19761;BME280;10039;42.632;23.408;2022-09-09T00:22:56;95214.44;;;19.99;64.11
19761;BME280;10039;42.632;23.408;2022-09-09T00:25:39;95192.00;;;19.98;63.61
19761;BME280;10039;42.632;23.408;2022-09-09T00:28:27;95179.97;;;19.99;63.68
19761;BME280;10039;42.632;23.408;2022-09-09T00:30:56;95169.44;;;19.92;63.28
19761;BME280;10039;42.632;23.408;2022-09-09T00:33:23;95165.81;;;19.95;63.39
19761;BME280;10039;42.632;23.408;2022-09-09T00:36:00;95156.75;;;19.84;63.52
19761;BME280;10039;42.632;23.408;2022-09-09T00:38:44;95180.53;;;20.03;63.59
19761;BME280;10039;42.632;23.408;2022-09-09T00:47:09;95133.19;;;19.75;63.83
19761;BME280;10039;42.632;23.408;2022-09-09T00:50:00;95162.19;;;19.98;63.19
19761;BME280;10039;42.632;23.408;2022-09-09T00:55:28;95139.56;;;19.87;63.66
19761;BME280;10039;42.632;23.408;2022-09-09T00:57:58;95167.16;;;20.00;63.70
19761;BME280;10039;42.632;23.408;2022-09-09T01:00:30;95165.00;;;20.04;63.66
19761;BME280;10039;42.632;23.408;2022-09-09T01:11:37;95149.91;;;19.88;63.63
19761;BME280;10039;42.632;23.408;2022-09-09T01:14:24;95159.09;;;19.91;63.69
19761;BME280;10039;42.632;23.408;2022-09-09T01:16:57;95173.56;;;19.88;63.71
19761;BME280;10039;42.632;23.408;2022-09-09T01:19:37;95161.50;;;19.74;63.99
19761;BME280;10039;42.632;23.408;2022-09-09T01:27:36;95164.75;;;19.93;63.45
19761;BME280;10039;42.632;23.408;2022-09-09T01:30:09;95162.44;;;19.86;63.81
19761;BME280;10039;42.632;23.408;2022-09-09T01:35:04;95156.16;;;19.80;64.12
19761;BME280;10039;42.632;23.408;2022-09-09T01:37:29;95147.75;;;19.78;64.01
19761;BME280;10039;42.632;23.408;2022-09-09T01:39:55;95173.91;;;19.81;64.02
19761;BME280;10039;42.632;23.408;2022-09-09T01:42:20;95169.34;;;19.72;64.64
19761;BME280;10039;42.632;23.408;2022-09-09T01:44:46;95163.59;;;19.56;64.22
19761;BME280;10039;42.632;23.408;2022-09-09T01:47:11;95171.00;;;19.70;64.45
19761;BME280;10039;42.632;23.408;2022-09-09T01:49:36;95171.63;;;19.65;64.86
19761;BME280;10039;42.632;23.408;2022-09-09T01:52:02;95161.53;;;19.51;65.55
19761;BME280;10039;42.632;23.408;2022-09-09T01:54:31;95182.47;;;19.65;64.92
19761;BME280;10039;42.632;23.408;2022-09-09T02:02:38;95158.88;;;19.42;64.94
19761;BME280;10039;42.632;23.408;2022-09-09T02:07:45;95147.63;;;19.20;65.57
19761;BME280;10039;42.632;23.408;2022-09-09T02:10:22;95184.28;;;19.44;65.34
19761;BME280;10039;42.632;23.408;2022-09-09T02:12:57;95179.63;;;19.45;65.44
19761;BME280;10039;42.632;23.408;2022-09-09T02:15:43;95164.81;;;19.31;65.25
19761;BME280;10039;42.632;23.408;2022-09-09T02:18:12;95157.34;;;19.26;65.54
19761;BME280;10039;42.632;23.408;2022-09-09T02:20:39;95165.22;;;19.39;65.42
19761;BME280;10039;42.632;23.408;2022-09-09T02:23:09;95150.09;;;19.32;65.17
19761;BME280;10039;42.632;23.408;2022-09-09T02:25:37;95169.03;;;19.56;65.15
19761;BME280;10039;42.632;23.408;2022-09-09T02:28:06;95149.19;;;19.50;64.82
19761;BME280;10039;42.632;23.408;2022-09-09T02:30:33;95147.41;;;19.47;64.78
19761;BME280;10039;42.632;23.408;2022-09-09T02:33:01;95163.41;;;19.59;64.55
19761;BME280;10039;42.632;23.408;2022-09-09T02:35:29;95173.56;;;19.50;64.82
19761;BME280;10039;42.632;23.408;2022-09-09T02:37:59;95137.00;;;19.31;64.77
19761;BME280;10039;42.632;23.408;2022-09-09T02:40:26;95166.19;;;19.50;64.79
19761;BME280;10039;42.632;23.408;2022-09-09T02:42:54;95146.03;;;19.28;65.17
19761;BME280;10039;42.632;23.408;2022-09-09T02:45:23;95161.53;;;19.27;65.26
19761;BME280;10039;42.632;23.408;2022-09-09T02:47:59;95158.78;;;19.13;65.54
19761;BME280;10039;42.632;23.408;2022-09-09T02:55:48;95184.06;;;19.01;66.10
19761;BME280;10039;42.632;23.408;2022-09-09T02:58:17;95183.16;;;19.04;66.01
19761;BME280;10039;42.632;23.408;2022-09-09T03:00:48;95182.56;;;19.00;66.56
19761;BME280;10039;42.632;23.408;2022-09-09T03:03:15;95164.22;;;19.04;66.34
19761;BME280;10039;42.632;23.408;2022-09-09T03:05:41;95171.50;;;19.21;65.85
19761;BME280;10039;42.632;23.408;2022-09-09T03:08:07;95151.69;;;19.16;65.92
19761;BME280;10039;42.632;23.408;2022-09-09T03:10:33;95150.03;;;19.18;65.42
19761;BME280;10039;42.632;23.408;2022-09-09T03:13:00;95169.09;;;19.23;65.56
19761;BME280;10039;42.632;23.408;2022-09-09T03:15:25;95187.50;;;19.34;65.39
19761;BME280;10039;42.632;23.408;2022-09-09T03:17:55;95192.25;;;19.24;65.87
19761;BME280;10039;42.632;23.408;2022-09-09T03:20:23;95143.00;;;18.79;66.65
19761;BME280;10039;42.632;23.408;2022-09-09T03:22:48;95185.22;;;19.09;66.25
19761;BME280;10039;42.632;23.408;2022-09-09T03:25:17;95193.78;;;19.17;66.18
19761;BME280;10039;42.632;23.408;2022-09-09T03:27:43;95194.06;;;19.18;66.09
19761;BME280;10039;42.632;23.408;2022-09-09T03:30:09;95163.59;;;19.09;65.76
19761;BME280;10039;42.632;23.408;2022-09-09T03:32:35;95196.09;;;19.32;65.86
19761;BME280;10039;42.632;23.408;2022-09-09T03:35:00;95191.59;;;19.29;65.68
19761;BME280;10039;42.632;23.408;2022-09-09T03:37:26;95177.84;;;19.18;65.49
19761;BME280;10039;42.632;23.408;2022-09-09T03:39:51;95163.28;;;19.16;65.68
19761;BME280;10039;42.632;23.408;2022-09-09T03:42:19;95200.59;;;19.35;65.46
19761;BME280;10039;42.632;23.408;2022-09-09T03:44:46;95201.97;;;19.31;65.49
19761;BME280;10039;42.632;23.408;2022-09-09T03:47:18;95163.72;;;19.15;65.74
19761;BME280;10039;42.632;23.408;2022-09-09T03:49:47;95187.78;;;19.36;65.61
19761;BME280;10039;42.632;23.408;2022-09-09T03:52:14;95184.34;;;19.35;65.52
19761;BME280;10039;42.632;23.408;2022-09-09T03:54:40;95183.31;;;19.33;65.35
19761;BME280;10039;42.632;23.408;2022-09-09T03:57:06;95184.06;;;19.33;65.90
19761;BME280;10039;42.632;23.408;2022-09-09T03:59:32;95186.31;;;19.35;65.55
19761;BME280;10039;42.632;23.408;2022-09-09T04:01:57;95183.59;;;19.35;65.46
19761;BME280;10039;42.632;23.408;2022-09-09T04:04:24;95155.47;;;19.09;65.31
19761;BME280;10039;42.632;23.408;2022-09-09T04:06:51;95156.22;;;19.10;65.55
19761;BME280;10039;42.632;23.408;2022-09-09T04:09:16;95195.06;;;19.30;65.71
19761;BME280;10039;42.632;23.408;2022-09-09T04:11:42;95190.00;;;19.23;65.54
19761;BME280;10039;42.632;23.408;2022-09-09T04:14:07;95183.59;;;19.12;65.71
19761;BME280;10039;42.632;23.408;2022-09-09T04:16:34;95175.91;;;19.10;65.89
19761;BME280;10039;42.632;23.408;2022-09-09T04:19:02;95200.66;;;19.26;65.76
19761;BME280;10039;42.632;23.408;2022-09-09T04:21:29;95196.00;;;19.27;65.56
19761;BME280;10039;42.632;23.408;2022-09-09T04:23:55;95188.13;;;19.29;65.45
19761;BME280;10039;42.632;23.408;2022-09-09T04:26:20;95195.81;;;19.30;65.62
19761;BME280;10039;42.632;23.408;2022-09-09T04:28:46;95185.84;;;19.13;65.88
19761;BME280;10039;42.632;23.408;2022-09-09T04:31:22;95205.66;;;19.19;65.62
19761;BME280;10039;42.632;23.408;2022-09-09T04:33:52;95194.84;;;19.10;65.47
19761;BME280;10039;42.632;23.408;2022-09-09T04:36:18;95194.16;;;19.01;65.72
19761;BME280;10039;42.632;23.408;2022-09-09T04:38:45;95197.31;;;18.99;66.07
19761;BME280;10039;42.632;23.408;2022-09-09T04:41:10;95184.34;;;18.80;65.73
19761;BME280;10039;42.632;23.408;2022-09-09T04:43:37;95209.19;;;19.02;65.99
19761;BME280;10039;42.632;23.408;2022-09-09T04:46:02;95206.63;;;18.98;65.82
19761;BME280;10039;42.632;23.408;2022-09-09T04:48:28;95217.34;;;18.93;65.76
19761;BME280;10039;42.632;23.408;2022-09-09T04:51:02;95206.81;;;18.95;65.92
19761;BME280;10039;42.632;23.408;2022-09-09T04:53:29;95197.97;;;18.94;65.85
19761;BME280;10039;42.632;23.408;2022-09-09T04:56:20;95205.91;;;18.98;65.89
19761;BME280;10039;42.632;23.408;2022-09-09T04:58:46;95193.09;;;18.98;65.84
19761;BME280;10039;42.632;23.408;2022-09-09T05:01:14;95189.84;;;18.94;65.89
19761;BME280;10039;42.632;23.408;2022-09-09T05:03:40;95181.53;;;18.98;65.92
19761;BME280;10039;42.632;23.408;2022-09-09T05:06:17;95173.25;;;19.01;65.93
19761;BME280;10039;42.632;23.408;2022-09-09T05:08:44;95148.72;;;18.81;66.03
19761;BME280;10039;42.632;23.408;2022-09-09T05:13:48;95160.34;;;18.96;66.36
19761;BME280;10039;42.632;23.408;2022-09-09T05:16:16;95165.84;;;19.11;66.27
19761;BME280;10039;42.632;23.408;2022-09-09T05:18:42;95170.78;;;19.21;65.96
19761;BME280;10039;42.632;23.408;2022-09-09T05:21:08;95159.38;;;19.17;66.23
19761;BME280;10039;42.632;23.408;2022-09-09T05:23:34;95180.88;;;19.35;66.30
19761;BME280;10039;42.632;23.408;2022-09-09T05:26:00;95164.00;;;19.40;66.25
19761;BME280;10039;42.632;23.408;2022-09-09T05:28:27;95167.53;;;19.55;66.20
19761;BME280;10039;42.632;23.408;2022-09-09T05:31:06;95133.38;;;19.34;65.53
19761;BME280;10039;42.632;23.408;2022-09-09T05:33:36;95151.34;;;19.46;65.97
19761;BME280;10039;42.632;23.408;2022-09-09T05:36:09;95120.63;;;19.49;65.35
19761;BME280;10039;42.632;23.408;2022-09-09T05:38:36;95155.78;;;19.72;65.59
19761;BME280;10039;42.632;23.408;2022-09-09T05:41:02;95140.84;;;19.77;65.25
19761;BME280;10039;42.632;23.408;2022-09-09T05:43:28;95160.56;;;19.92;64.96
19761;BME280;10039;42.632;23.408;2022-09-09T05:46:04;95153.72;;;20.05;64.80
19761;BME280;10039;42.632;23.408;2022-09-09T05:48:56;95164.63;;;20.11;64.33
19761;BME280;10039;42.632;23.408;2022-09-09T05:51:26;95176.22;;;20.11;64.43
19761;BME280;10039;42.632;23.408;2022-09-09T05:53:53;95177.72;;;20.12;63.28
19761;BME280;10039;42.632;23.408;2022-09-09T05:56:22;95171.00;;;20.22;64.02
19761;BME280;10039;42.632;23.408;2022-09-09T05:58:50;95175.13;;;20.32;63.01
19761;BME280;10039;42.632;23.408;2022-09-09T06:03:48;95143.03;;;20.31;62.17
19761;BME280;10039;42.632;23.408;2022-09-09T06:06:16;95184.16;;;20.58;61.38
19761;BME280;10039;42.632;23.408;2022-09-09T06:08:43;95180.69;;;20.57;61.61
19761;BME280;10039;42.632;23.408;2022-09-09T06:11:16;95189.06;;;20.74;61.26
19761;BME280;10039;42.632;23.408;2022-09-09T06:13:44;95194.59;;;20.79;60.02
19761;BME280;10039;42.632;23.408;2022-09-09T06:16:12;95199.28;;;20.93;60.42
19761;BME280;10039;42.632;23.408;2022-09-09T06:18:39;95193.75;;;21.02;59.91
19761;BME280;10039;42.632;23.408;2022-09-09T06:21:06;95191.59;;;21.26;58.83
19761;BME280;10039;42.632;23.408;2022-09-09T06:23:35;95167.97;;;21.32;58.26
19761;BME280;10039;42.632;23.408;2022-09-09T06:26:12;95175.94;;;21.55;58.22
19761;BME280;10039;42.632;23.408;2022-09-09T06:28:38;95175.56;;;21.62;57.86
19761;BME280;10039;42.632;23.408;2022-09-09T06:31:08;95188.91;;;21.86;57.52
19761;BME280;10039;42.632;23.408;2022-09-09T06:33:35;95167.03;;;21.75;57.16
19761;BME280;10039;42.632;23.408;2022-09-09T06:36:02;95187.31;;;21.99;56.35
19761;BME280;10039;42.632;23.408;2022-09-09T06:38:29;95171.75;;;22.00;56.30
19761;BME280;10039;42.632;23.408;2022-09-09T06:40:56;95175.81;;;22.10;56.00
19761;BME280;10039;42.632;23.408;2022-09-09T06:43:23;95181.53;;;22.37;56.20
19761;BME280;10039;42.632;23.408;2022-09-09T06:46:00;95159.31;;;22.39;55.72
19761;BME280;10039;42.632;23.408;2022-09-09T06:48:26;95168.41;;;22.36;56.31
19761;BME280;10039;42.632;23.408;2022-09-09T06:51:13;95144.22;;;22.18;55.30
19761;BME280;10039;42.632;23.408;2022-09-09T06:53:41;95150.75;;;22.26;55.52
19761;BME280;10039;42.632;23.408;2022-09-09T06:56:28;95177.06;;;22.65;55.45
19761;BME280;10039;42.632;23.408;2022-09-09T06:58:56;95182.88;;;22.83;55.45
19761;BME280;10039;42.632;23.408;2022-09-09T07:01:27;95184.22;;;22.99;54.17
19761;BME280;10039;42.632;23.408;2022-09-09T07:03:55;95188.41;;;23.25;54.30
19761;BME280;10039;42.632;23.408;2022-09-09T07:06:22;95171.63;;;23.38;53.93
19761;BME280;10039;42.632;23.408;2022-09-09T07:08:54;95190.81;;;23.65;52.89
19761;BME280;10039;42.632;23.408;2022-09-09T07:11:21;95185.94;;;23.80;53.07
19761;BME280;10039;42.632;23.408;2022-09-09T07:13:47;95180.78;;;23.93;52.24
19761;BME280;10039;42.632;23.408;2022-09-09T07:16:16;95183.59;;;24.26;52.98
19761;BME280;10039;42.632;23.408;2022-09-09T07:18:42;95169.44;;;24.22;50.61
19761;BME280;10039;42.632;23.408;2022-09-09T07:21:12;95181.13;;;24.28;50.14
19761;BME280;10039;42.632;23.408;2022-09-09T07:23:39;95164.91;;;23.91;50.36
19761;BME280;10039;42.632;23.408;2022-09-09T07:26:12;95180.59;;;24.24;52.06
19761;BME280;10039;42.632;23.408;2022-09-09T07:28:38;95171.19;;;24.47;51.40
19761;BME280;10039;42.632;23.408;2022-09-09T07:31:05;95173.72;;;24.67;49.87
19761;BME280;10039;42.632;23.408;2022-09-09T07:33:33;95179.16;;;24.78;49.28
19761;BME280;10039;42.632;23.408;2022-09-09T07:36:07;95158.06;;;24.78;49.38
19761;BME280;10039;42.632;23.408;2022-09-09T07:38:44;95168.25;;;25.00;49.11
19761;BME280;10039;42.632;23.408;2022-09-09T07:41:19;95144.13;;;24.98;49.62
19761;BME280;10039;42.632;23.408;2022-09-09T07:43:46;95166.00;;;24.98;47.58
19761;BME280;10039;42.632;23.408;2022-09-09T07:46:14;95156.31;;;24.92;48.80
19761;BME280;10039;42.632;23.408;2022-09-09T07:48:46;95160.03;;;24.94;49.07
19761;BME280;10039;42.632;23.408;2022-09-09T07:51:15;95177.16;;;25.27;48.74
19761;BME280;10039;42.632;23.408;2022-09-09T07:53:45;95175.59;;;25.48;48.35
19761;BME280;10039;42.632;23.408;2022-09-09T07:56:16;95157.19;;;25.54;48.21
19761;BME280;10039;42.632;23.408;2022-09-09T07:58:45;95134.78;;;25.56;47.00
19761;BME280;10039;42.632;23.408;2022-09-09T08:01:14;95160.81;;;25.79;46.75
19761;BME280;10039;42.632;23.408;2022-09-09T08:03:42;95131.97;;;25.72;48.04
19761;BME280;10039;42.632;23.408;2022-09-09T08:06:10;95150.75;;;26.03;46.70
19761;BME280;10039;42.632;23.408;2022-09-09T08:08:38;95152.34;;;26.28;47.11
19761;BME280;10039;42.632;23.408;2022-09-09T08:11:14;95169.66;;;26.47;46.16
19761;BME280;10039;42.632;23.408;2022-09-09T08:13:42;95172.78;;;26.62;45.82
19761;BME280;10039;42.632;23.408;2022-09-09T08:18:35;95173.19;;;27.01;46.25
19761;BME280;10039;42.632;23.408;2022-09-09T08:21:08;95162.63;;;27.16;45.43
19761;BME280;10039;42.632;23.408;2022-09-09T08:23:41;95171.00;;;27.47;46.39
19761;BME280;10039;42.632;23.408;2022-09-09T08:26:23;95149.81;;;27.47;45.67
19761;BME280;10039;42.632;23.408;2022-09-09T08:28:54;95158.56;;;27.64;44.47
19761;BME280;10039;42.632;23.408;2022-09-09T08:31:28;95139.16;;;27.62;46.01
19761;BME280;10039;42.632;23.408;2022-09-09T08:33:54;95162.03;;;27.70;44.04
19761;BME280;10039;42.632;23.408;2022-09-09T08:36:22;95141.22;;;27.56;44.57
19761;BME280;10039;42.632;23.408;2022-09-09T08:38:50;95140.56;;;27.50;45.13
19761;BME280;10039;42.632;23.408;2022-09-09T08:52:41;95154.34;;;27.63;45.48
19761;BME280;10039;42.632;23.408;2022-09-09T08:58:29;95140.19;;;27.59;44.45
19761;BME280;10039;42.632;23.408;2022-09-09T09:08:49;95111.72;;;27.62;44.49
19761;BME280;10039;42.632;23.408;2022-09-09T09:11:18;95147.56;;;27.88;45.43
19761;BME280;10039;42.632;23.408;2022-09-09T09:13:54;95139.41;;;27.83;45.62
19761;BME280;10039;42.632;23.408;2022-09-09T09:16:34;95117.63;;;27.72;43.85
19761;BME280;10039;42.632;23.408;2022-09-09T09:19:03;95130.91;;;27.86;44.97
19761;BME280;10039;42.632;23.408;2022-09-09T09:21:48;95114.25;;;27.79;44.73
19761;BME280;10039;42.632;23.408;2022-09-09T09:24:20;95123.53;;;27.94;44.19
19761;BME280;10039;42.632;23.408;2022-09-09T09:26:46;95130.16;;;28.04;43.97
19761;BME280;10039;42.632;23.408;2022-09-09T09:29:15;95102.56;;;27.97;44.13
19761;BME280;10039;42.632;23.408;2022-09-09T09:31:55;95121.22;;;28.17;44.58
19761;BME280;10039;42.632;23.408;2022-09-09T09:34:24;95110.69;;;28.02;44.75
19761;BME280;10039;42.632;23.408;2022-09-09T09:36:56;95118.22;;;28.02;44.48
19761;BME280;10039;42.632;23.408;2022-09-09T09:39:33;95136.13;;;28.21;44.80
19761;BME280;10039;42.632;23.408;2022-09-09T09:42:14;95099.00;;;28.02;44.41
19761;BME280;10039;42.632;23.408;2022-09-09T09:44:41;95106.38;;;28.07;44.98
19761;BME280;10039;42.632;23.408;2022-09-09T09:47:19;95109.50;;;28.16;44.84
19761;BME280;10039;42.632;23.408;2022-09-09T09:49:56;95107.72;;;28.19;45.11
19761;BME280;10039;42.632;23.408;2022-09-09T09:52:31;95090.94;;;28.22;44.21
19761;BME280;10039;42.632;23.408;2022-09-09T09:54:58;95082.91;;;28.24;44.29
19761;BME280;10039;42.632;23.408;2022-09-09T09:57:31;95101.19;;;28.40;43.29
19761;BME280;10039;42.632;23.408;2022-09-09T10:00:18;95105.19;;;28.39;43.54
19761;BME280;10039;42.632;23.408;2022-09-09T10:02:46;95075.19;;;28.23;43.37
19761;BME280;10039;42.632;23.408;2022-09-09T10:05:30;95116.41;;;28.54;42.99
19761;BME280;10039;42.632;23.408;2022-09-09T10:13:47;95074.09;;;28.31;43.07
19761;BME280;10039;42.632;23.408;2022-09-09T10:19:18;95119.81;;;28.60;43.01
19761;BME280;10039;42.632;23.408;2022-09-09T10:27:22;95110.06;;;28.46;43.38
19761;BME280;10039;42.632;23.408;2022-09-09T10:30:15;95126.38;;;28.57;44.05
19761;BME280;10039;42.632;23.408;2022-09-09T10:33:10;95095.47;;;28.38;42.28
19761;BME280;10039;42.632;23.408;2022-09-09T10:35:53;95094.81;;;28.32;43.11
19761;BME280;10039;42.632;23.408;2022-09-09T10:38:34;95107.94;;;28.39;43.17
19761;BME280;10039;42.632;23.408;2022-09-09T10:41:30;95126.56;;;28.46;42.57
19761;BME280;10039;42.632;23.408;2022-09-09T10:44:18;95097.88;;;28.10;43.29
19761;BME280;10039;42.632;23.408;2022-09-09T10:47:28;95114.69;;;28.20;43.55
19761;BME280;10039;42.632;23.408;2022-09-09T10:53:12;95088.03;;;27.83;43.38
19761;BME280;10039;42.632;23.408;2022-09-09T10:55:47;95095.00;;;27.84;43.38
19761;BME280;10039;42.632;23.408;2022-09-09T10:58:23;95127.03;;;27.95;43.58
19761;BME280;10039;42.632;23.408;2022-09-09T11:00:54;95108.28;;;27.80;43.93
19761;BME280;10039;42.632;23.408;2022-09-09T11:03:26;95076.84;;;27.57;43.24
19761;BME280;10039;42.632;23.408;2022-09-09T11:06:12;95106.69;;;27.66;43.87
19761;BME280;10039;42.632;23.408;2022-09-09T11:08:39;95122.13;;;27.69;43.52
19761;BME280;10039;42.632;23.408;2022-09-09T11:11:17;95124.81;;;27.51;43.97
19761;BME280;10039;42.632;23.408;2022-09-09T11:19:37;95097.75;;;27.42;45.46
19761;BME280;10039;42.632;23.408;2022-09-09T11:21:48;95122.84;;;27.51;44.61
19761;BME280;10039;42.632;23.408;2022-09-09T11:24:26;95111.25;;;27.40;45.68
19761;BME280;10039;42.632;23.408;2022-09-09T11:29:43;95111.41;;;27.47;45.12
19761;BME280;10039;42.632;23.408;2022-09-09T11:32:32;95088.03;;;27.41;46.05
19761;BME280;10039;42.632;23.408;2022-09-09T11:38:28;95088.06;;;27.59;45.89
19761;BME280;10039;42.632;23.408;2022-09-09T11:41:05;95066.03;;;27.46;45.84
19761;BME280;10039;42.632;23.408;2022-09-09T11:43:45;95085.31;;;27.59;45.57
19761;BME280;10039;42.632;23.408;2022-09-09T11:46:14;95080.75;;;27.67;45.03
19761;BME280;10039;42.632;23.408;2022-09-09T11:48:42;95074.53;;;27.67;45.33
19761;BME280;10039;42.632;23.408;2022-09-09T11:56:29;95027.63;;;27.65;46.00
19761;BME280;10039;42.632;23.408;2022-09-09T12:01:33;95009.41;;;27.67;45.16
19761;BME280;10039;42.632;23.408;2022-09-09T12:07:00;95001.84;;;27.73;45.71
19761;BME280;10039;42.632;23.408;2022-09-09T12:09:49;95027.47;;;27.76;45.46
19761;BME280;10039;42.632;23.408;2022-09-09T12:12:24;95051.50;;;27.88;45.47
19761;BME280;10039;42.632;23.408;2022-09-09T12:14:58;95048.97;;;27.90;45.53
19761;BME280;10039;42.632;23.408;2022-09-09T12:17:29;95023.63;;;27.84;45.55
19761;BME280;10039;42.632;23.408;2022-09-09T12:20:15;95012.34;;;27.88;45.36
19761;BME280;10039;42.632;23.408;2022-09-09T12:26:21;95023.59;;;28.03;45.48
19761;BME280;10039;42.632;23.408;2022-09-09T12:31:46;95020.28;;;28.23;46.92
19761;BME280;10039;42.632;23.408;2022-09-09T12:34:27;95021.19;;;28.12;44.66
19761;BME280;10039;42.632;23.408;2022-09-09T12:37:16;95015.72;;;28.12;44.74
19761;BME280;10039;42.632;23.408;2022-09-09T12:39:51;94982.25;;;27.82;45.44
19761;BME280;10039;42.632;23.408;2022-09-09T12:42:20;95011.03;;;28.07;45.35
19761;BME280;10039;42.632;23.408;2022-09-09T12:44:59;95011.38;;;28.17;45.67
19761;BME280;10039;42.632;23.408;2022-09-09T12:47:39;94963.06;;;27.95;46.15
19761;BME280;10039;42.632;23.408;2022-09-09T12:50:27;94979.84;;;27.92;45.89
19761;BME280;10039;42.632;23.408;2022-09-09T12:52:59;94985.47;;;27.99;45.99
19761;BME280;10039;42.632;23.408;2022-09-09T12:55:32;94985.38;;;28.05;46.06
19761;BME280;10039;42.632;23.408;2022-09-09T12:57:59;95002.47;;;28.29;46.02
19761;BME280;10039;42.632;23.408;2022-09-09T13:00:26;94963.75;;;28.14;45.57
19761;BME280;10039;42.632;23.408;2022-09-09T13:03:03;94992.13;;;28.35;45.82
19761;BME280;10039;42.632;23.408;2022-09-09T13:05:41;94961.34;;;28.24;45.90
19761;BME280;10039;42.632;23.408;2022-09-09T13:08:14;94991.09;;;28.51;44.79
19761;BME280;10039;42.632;23.408;2022-09-09T13:10:50;94982.94;;;28.46;44.16
19761;BME280;10039;42.632;23.408;2022-09-09T13:13:34;94973.53;;;28.41;45.10
19761;BME280;10039;42.632;23.408;2022-09-09T13:16:20;94980.53;;;28.42;45.29
19761;BME280;10039;42.632;23.408;2022-09-09T13:18:48;94950.97;;;28.17;44.47
19761;BME280;10039;42.632;23.408;2022-09-09T13:21:14;94979.25;;;28.43;44.59
19761;BME280;10039;42.632;23.408;2022-09-09T13:23:40;94958.22;;;28.33;43.88
19761;BME280;10039;42.632;23.408;2022-09-09T13:26:20;94948.34;;;28.24;44.08
19761;BME280;10039;42.632;23.408;2022-09-09T13:31:54;94965.50;;;28.56;44.42
19761;BME280;10039;42.632;23.408;2022-09-09T13:34:30;94950.72;;;28.46;44.66
19761;BME280;10039;42.632;23.408;2022-09-09T13:37:01;94941.97;;;28.03;45.59
19761;BME280;10039;42.632;23.408;2022-09-09T13:39:28;94947.47;;;28.03;45.81
19761;BME280;10039;42.632;23.408;2022-09-09T13:41:54;94940.09;;;28.11;45.81
19761;BME280;10039;42.632;23.408;2022-09-09T13:47:00;94940.31;;;28.13;45.79
19761;BME280;10039;42.632;23.408;2022-09-09T13:49:28;94961.22;;;28.16;45.48
19761;BME280;10039;42.632;23.408;2022-09-09T13:52:04;94910.06;;;28.00;45.92
19761;BME280;10039;42.632;23.408;2022-09-09T13:54:32;94931.44;;;28.20;45.93
19761;BME280;10039;42.632;23.408;2022-09-09T13:56:58;94949.00;;;28.30;45.33
19761;BME280;10039;42.632;23.408;2022-09-09T13:59:26;94912.53;;;28.17;46.13
19761;BME280;10039;42.632;23.408;2022-09-09T14:01:52;94927.91;;;28.38;45.44
19761;BME280;10039;42.632;23.408;2022-09-09T14:04:19;94943.53;;;28.30;45.86
19761;BME280;10039;42.632;23.408;2022-09-09T14:06:47;94913.38;;;28.12;45.65
19761;BME280;10039;42.632;23.408;2022-09-09T14:09:16;94919.81;;;28.14;45.52
19761;BME280;10039;42.632;23.408;2022-09-09T14:11:43;94910.09;;;28.13;46.03
19761;BME280;10039;42.632;23.408;2022-09-09T14:14:09;94896.69;;;27.97;46.41
19761;BME280;10039;42.632;23.408;2022-09-09T14:16:34;94914.84;;;28.13;46.10
19761;BME280;10039;42.632;23.408;2022-09-09T14:19:00;94891.53;;;28.19;45.40
19761;BME280;10039;42.632;23.408;2022-09-09T14:21:27;94930.53;;;28.44;46.21
19761;BME280;10039;42.632;23.408;2022-09-09T14:23:53;94895.09;;;28.01;45.93
19761;BME280;10039;42.632;23.408;2022-09-09T14:26:20;94894.75;;;28.05;45.50
19761;BME280;10039;42.632;23.408;2022-09-09T14:28:46;94926.00;;;28.33;46.12
19761;BME280;10039;42.632;23.408;2022-09-09T14:31:13;94916.44;;;28.08;45.60
19761;BME280;10039;42.632;23.408;2022-09-09T14:33:38;94920.97;;;28.19;45.46
19761;BME280;10039;42.632;23.408;2022-09-09T14:36:04;94914.63;;;28.11;45.39
19761;BME280;10039;42.632;23.408;2022-09-09T14:38:32;94914.56;;;28.29;45.98
19761;BME280;10039;42.632;23.408;2022-09-09T14:40:59;94891.31;;;28.17;46.04
19761;BME280;10039;42.632;23.408;2022-09-09T14:43:25;94870.81;;;28.05;46.14
19761;BME280;10039;42.632;23.408;2022-09-09T14:45:52;94887.94;;;28.11;46.59
19761;BME280;10039;42.632;23.408;2022-09-09T14:48:17;94896.38;;;28.13;46.30
19761;BME280;10039;42.632;23.408;2022-09-09T14:50:44;94910.44;;;28.23;46.11
19761;BME280;10039;42.632;23.408;2022-09-09T14:53:09;94888.88;;;28.01;46.50
19761;BME280;10039;42.632;23.408;2022-09-09T14:55:36;94886.63;;;27.99;46.19
19761;BME280;10039;42.632;23.408;2022-09-09T14:58:03;94891.50;;;28.06;46.30
19761;BME280;10039;42.632;23.408;2022-09-09T15:00:29;94889.78;;;27.90;46.05
19761;BME280;10039;42.632;23.408;2022-09-09T15:02:55;94893.78;;;27.89;46.41
19761;BME280;10039;42.632;23.408;2022-09-09T15:05:21;94916.94;;;28.07;46.36
19761;BME280;10039;42.632;23.408;2022-09-09T15:07:47;94917.88;;;27.96;46.50
19761;BME280;10039;42.632;23.408;2022-09-09T15:10:13;94922.44;;;27.94;46.85
19761;BME280;10039;42.632;23.408;2022-09-09T15:12:39;94921.25;;;27.89;46.87
19761;BME280;10039;42.632;23.408;2022-09-09T15:15:05;94923.47;;;27.91;47.05